Ballone Castle Airstrip

GB-0540 · Scotland, United Kingdom

METAR history GB-0540 · Ballone Castle Airstrip

Below you see METARs of the last few days. Select a year to browse through older METARs, from the year 2007 onwards.

December 7, 2022

Time Code Weather Temp. Visibility Ceiling Wind METAR/SPECI
21:50
V
3 °C 10 km+ - 340° 340° 16 kt METAR EGQS 072150Z 34016KT 9999 FEW035 SCT045 03/M03 Q1017 RMK BLU
20:50
V
3 °C 10 km+ 3,600 ft 360° 360° 20 kt METAR EGQS 072050Z 36020KT 9999 SCT028 BKN036 03/M03 Q1017 RMK BLU
19:50
M
3 °C 10 km+ 2,800 ft 350° 350° 16 kt METAR EGQS 071950Z 35016KT 9999 FEW014 SCT020 BKN028 03/M01 Q1017 RMK WHT
18:50
M
3 °C 10 km+ 2,500 ft 360° 360° 17 kt METAR EGQS 071850Z 36017KT 9999 VCSH FEW014 SCT020 BKN025 03/M00 Q1017 RMK WHT
18:20
M
3 °C 10 km+ 2,800 ft 350° 350° 17 kt METAR EGQS 071820Z 35017KT 9999 -SHRASN FEW012 SCT017 BKN028 03/01 Q1018 TEMPO 5000 SHRASN SHGS RMK WHT TEMPO WHT
17:50
V
3 °C 10 km+ 3,000 ft 360° 360° 17 kt METAR EGQS 071750Z 36017KT 9999 -SHRASN FEW012 SCT015 BKN030 03/00 Q1018 TEMPO 4000 SHRASN SHGS SCT012 RMK WHT TEMPO GRN
17:30
V
2 °C 10 km+ 3,000 ft 350° 350° 17 kt METAR EGQS 071730Z 35017KT 9999 -SHRASN FEW009 SCT015 BKN030 02/01 Q1018 TEMPO 4000 SHRASN SHGS SCT009 RMK WHT TEMPO GRN
17:20
M
2 °C 7 km 3,000 ft 350° 350° 18 kt METAR EGQS 071720Z 35018KT 7000 -SHRASN FEW009 SCT015 BKN030 02/00 Q1018 TEMPO 4000 SHRASN SHGS SCT009 RMK WHT TEMPO GRN
17:10
M
2 °C 5 km 2,500 ft 340° 340° 16 kt METAR EGQS 071710Z 34016KT 5000 -RASN FEW009 SCT015 BKN025 02/01 Q1018 TEMPO 4000 SHRASN SHGS SCT009 RMK WHT TEMPO GRN
16:50
V
3 °C 10 km+ 6,500 ft 350° 350° 15 kt METAR EGQS 071650Z 35015KT 9999 VCSH FEW010 SCT015 BKN065 03/01 Q1018 TEMPO 4000 SHRASN SHGS SCT010 RMK WHT TEMPO GRN
16:41
V
2 °C 10 km+ 7,000 ft 350° 350° 19 - 29 kt METAR EGQS 071641Z 35019G29KT 9999 -SHRASN FEW010 SCT015 BKN070 02/01 Q1018 TEMPO 4000 SHRASN SHGS SCT010 RMK WHT TEMPO GRN
16:20
V
3 °C 10 km+ 7,000 ft 350° 350° 18 kt METAR EGQS 071620Z 35018KT 9999 -SHRA FEW010 SCT025 BKN070 03/01 Q1018 TEMPO 4000 SHRASN SHGS SCT010 RMK BLU TEMPO GRN
16:03
V
4 °C 10 km+ 7,000 ft 330° 330° 16 kt METAR EGQS 071603Z 33016KT 9999 -SHRA FEW011 SCT025 BKN070 04/00 Q1018 TEMPO 4000 SHRASN SHGS SCT011 RMK BLU TEMPO GRN
15:50
V
4 °C 10 km+ 7,000 ft 330° 330° 17 kt METAR EGQS 071550Z 33017KT 9999 VCSH FEW011 SCT017 BKN070 04/01 Q1018 TEMPO 4000 SHRASN SHGS SCT011 RMK WHT TEMPO GRN
15:20
V
4 °C 10 km+ 7,900 ft 310° 310° 15 kt METAR EGQS 071520Z 31015KT 9999 -SHRA FEW012 SCT017 BKN079 04/01 Q1019 TEMPO 4000 SHRASN SHGS SCT012 RMK WHT TEMPO GRN
14:50
V
4 °C 10 km+ 7,000 ft 310° 310° 17 kt METAR EGQS 071450Z 31017KT 9999 VCSH FEW011 SCT015 BKN070 04/01 Q1019 TEMPO 4000 SHRASN SHGS SCT011 RMK WHT TEMPO GRN
14:20
M
4 °C 10 km+ 2,500 ft 320° 320° 19 kt METAR EGQS 071420Z 32019KT 9999 -SHRA FEW011 SCT015 BKN025 04/02 Q1019 TEMPO 4000 SHRASN SHGS SCT010 RMK WHT TEMPO GRN
13:50
M
4 °C 10 km+ 2,500 ft 320° 320° 17 kt METAR EGQS 071350Z 32017KT 9999 -SHRA FEW013 SCT015 BKN025 04/02 Q1020 TEMPO 4000 SHRASN SHGS SCT010 RMK WHT TEMPO GRN
13:20
M
4 °C 10 km+ 2,500 ft 310° 310° 17 kt METAR EGQS 071320Z 31017KT 9999 -SHRA SCT015 BKN025 04/02 Q1020 TEMPO 4000 -SHRASN SHGS SCT010 RMK WHT TEMPO GRN
12:50
M
4 °C 10 km+ 2,500 ft 310° 310° 15 kt METAR EGQS 071250Z 31015KT 9999 -SHRA SCT017 BKN025 04/01 Q1020 RMK WHT
12:20
M
4 °C 10 km+ 1,700 ft 310° 310° 16 kt METAR EGQS 071220Z 31016KT 9999 -SHGS BKN017 BKN026 04/02 Q1021 TEMPO 9999 NSW SCT017 RMK WHT TEMPO WHT
11:50
M
4 °C 10 km+ 1,800 ft 300° 300° 14 kt METAR EGQS 071150Z 30014KT 9999 -SHRA FEW014 BKN018 04/01 Q1021 TEMPO 4000 SHRASN SHGS SCT012 BKN015 RMK WHT TEMPO GRN
11:20
M
4 °C 10 km+ 1,800 ft 310° 310° 15 kt METAR EGQS 071120Z 31015KT 9999 -SHRA FEW012 BKN018 04/01 Q1022 TEMPO 4000 SHRASN SHGS SCT012 BKN015 RMK WHT TEMPO GRN
10:50
V
4 °C 10 km+ 3,700 ft 310° 310° 14 kt METAR EGQS 071050Z 31014KT 9999 -SHRASN FEW011 SCT021 BKN037 04/01 Q1022 TEMPO 4000 SHRASN SHGS SCT013 BKN015 RMK WHT
10:29
V
4 °C 10 km+ 5,400 ft 300° 300° 13 kt METAR EGQS 071029Z 30013KT 9999 VCSH FEW011 BKN054 04/02 Q1022 TEMPO SCT020 RMK BLU TEMPO WHT
10:20
V
4 °C 10 km+ 5,400 ft 300° 300° 13 kt METAR EGQS 071020Z 30013KT 9999 VCSH FEW011 SCT020 BKN054 04/01 Q1022 TEMPO FEW020 RMK WHT TEMPO BLU
09:50
V
4 °C 10 km+ 3,500 ft 300° 300° 12 kt METAR EGQS 070950Z 30012KT 9999 VCSH FEW011 SCT017 BKN035 04/02 Q1023 NOSIG RMK WHT WHT
09:20
V
4 °C 10 km+ 4,500 ft 320° 320° 13 kt METAR EGQS 070920Z 32013KT 9999 -SHRA FEW011 SCT020 BKN045 04/01 Q1023 TEMPO -SHRA SCT011 RMK WHT TEMPO GRN
08:50
V
4 °C 10 km+ 5,000 ft 320° 320° 11 kt METAR EGQS 070850Z 32011KT 9999 VCSH FEW011 SCT017 BKN050 04/01 Q1023 TEMPO -SHRA SCT011 RMK WHT TEMPO GRN
08:20
M
4 °C 10 km+ 2,100 ft 330° 330° 13 kt METAR EGQS 070820Z 33013KT 9999 -SHRA FEW013 BKN021 04/01 Q1023 TEMPO 4000 SHRASN SHGS SCT013 RMK WHT TEMPO GRN
07:50
V
4 °C 10 km+ 6,000 ft 320° 320° 15 kt METAR EGQS 070750Z 32015KT 9999 VCSH FEW013 SCT018 BKN060 04/02 Q1023 RESHGS TEMPO 4000 SHRASN SHGA SCT013 RMK WHT TEMPO GRN
06:50
V
4 °C 10 km+ 4,000 ft 310° 310° 15 kt METAR EGQS 070650Z 31015KT 9999 SHGS SCT022 OVC040 04/01 Q1024 RMK WHT
05:50
V
4 °C 10 km+ 5,000 ft 330° 330° 16 kt METAR EGQS 070550Z 33016KT 9999 SCT023 OVC050 04/01 Q1024 RMK WHT
04:50
V
4 °C 10 km+ 4,800 ft 330° 330° 14 kt METAR EGQS 070450Z 33014KT 9999 VCSH SCT018 OVC048 04/02 Q1025 RMK WHT
03:58
V
4 °C 10 km+ 4,500 ft 320° 320° 12 kt SPECI EGQS 070358Z 32012KT 9999 FEW013 SCT019 BKN045 04/01 Q1025 RMK WHT
03:50
M
4 °C 10 km+ 1,900 ft 320° 320° 12 kt METAR EGQS 070350Z AUTO 32012KT 9999 -DZ FEW013/// BKN019/// 04/01 Q1025
02:50
M
4 °C 10 km+ 1,500 ft 330° 330° 14 kt METAR EGQS 070250Z 33014KT 9999 BKN015 BKN041 04/02 Q1026 RMK WHT
01:50
V
4 °C 10 km+ 5,600 ft 340° 340° 14 kt METAR EGQS 070150Z 34014KT 9999 SCT017 SCT039 BKN056 04/01 Q1026 RMK WHT
00:50
V
5 °C 10 km+ 6,000 ft 340° 340° 15 kt METAR EGQS 070050Z 34015KT 9999 SCT020 BKN060 05/00 Q1026 RMK WHT

December 6, 2022

Time Code Weather Temp. Visibility Ceiling Wind METAR/SPECI
23:50
V
4 °C 10 km+ 4,000 ft 330° 330° 12 kt METAR EGQS 062350Z 33012KT 9999 7000S SCT018 BKN040 04/02 Q1027 RESHGS RMK WHT
23:35
M
4 °C 7 km 3,500 ft 330° 330° 13 kt METAR EGQS 062335Z 33013KT 7000 SHGS SCT020 OVC035 04/01 Q1027 RMK WHT
22:50
V
5 °C 10 km+ 5,500 ft 330° 330° 14 kt METAR EGQS 062250Z 33014KT 9999 FEW020 SCT035 BKN055 05/01 Q1027 RMK BLU
21:50
V
4 °C 10 km+ 6,000 ft 340° 340° 13 kt METAR EGQS 062150Z 34013KT 9999 SCT020 BKN060 04/01 Q1027 RMK WHT
21:20
V
4 °C 10 km+ 4,100 ft 350° 350° 14 kt METAR EGQS 062120Z AUTO 35014KT 9999 FEW019/// BKN041/// 04/01 Q1027
20:50
V
5 °C 10 km+ 4,600 ft 350° 350° 15 kt METAR EGQS 062050Z 35015KT 9999 SCT022 BKN046 05/01 Q1028 RMK WHT
20:20
M
5 °C 10 km+ 1,800 ft 350° 350° 17 kt METAR EGQS 062020Z AUTO 35017KT 9999 BKN018/// OVC056/// 05/01 Q1028
19:50
V
5 °C 10 km+ 5,500 ft 340° 340° 12 kt METAR EGQS 061950Z 34012KT 9999 FEW024 OVC055 05/01 Q1028 RMK BLU
19:20
V
5 °C 10 km+ 5,000 ft 350° 350° 16 kt METAR EGQS 061920Z AUTO 35016KT 9999 SCT018/// BKN050/// 05/01 Q1028
18:50
V
5 °C 10 km+ 5,000 ft 340° 340° 17 kt METAR EGQS 061850Z 34017KT 9999 FEW018 SCT030 BKN050 05/01 Q1028 RMK BLU
18:20
V
5 °C 10 km+ 6,000 ft 350° 350° 15 kt METAR EGQS 061820Z 35015KT 9999 FEW018 SCT030 BKN060 05/01 Q1028 TEMPO 7000 -SHRA SCT018 RMK BLU TEMPO WHT
17:50
V
4 °C 10 km+ 6,000 ft 340° 340° 13 kt METAR EGQS 061750Z 34013KT 9999 FEW018 BKN060 04/01 Q1028 TEMPO 7000 -SHRA SCT018 RMK BLU TEMPO WHT
17:20
V
5 °C 10 km+ 5,500 ft 340° 340° 16 kt METAR EGQS 061720Z 34016KT 9999 FEW018 BKN055 05/01 Q1028 TEMPO 7000 -SHRA SCT018 RMK BLU TEMPO WHT
16:50
V
5 °C 10 km+ 5,000 ft 330° 330° 14 kt METAR EGQS 061650Z 33014KT 9999 FEW018 BKN050 05/01 Q1028 TEMPO 7000 -SHRA SCT018 RMK BLU TEMPO BLU
16:20
V
5 °C 10 km+ 5,500 ft 340° 340° 15 kt METAR EGQS 061620Z 34015KT 9999 FEW018 BKN055 05/01 Q1028 TEMPO 7000 -SHRA SCT018 RMK BLU TEMPO WHT
15:50
V
5 °C 10 km+ 5,500 ft 360° 360° 14 kt METAR EGQS 061550Z 36014KT 9999 FEW018 BKN055 05/M00 Q1028 TEMPO 7000 -SHRA SCT018 RMK BLU TEMPO WHT
15:20
V
5 °C 10 km+ 5,000 ft 350° 350° 17 kt METAR EGQS 061520Z 35017KT 9999 FEW018 BKN050 05/01 Q1028 NOSIG RMK BLU BLU
14:50
V
5 °C 10 km+ 5,500 ft 350° 350° 17 kt METAR EGQS 061450Z 35017KT 9999 FEW022 BKN055 05/01 Q1028 NOSIG RMK BLU BLU
14:20
V
6 °C 10 km+ - 360° 360° 18 kt METAR EGQS 061420Z 36018KT 9999 FEW022 SCT055 06/01 Q1028 NOSIG RMK BLU BLU
13:50
V
5 °C 10 km+ - 350° 350° 17 kt METAR EGQS 061350Z 35017KT 9999 FEW022 05/01 Q1028 NOSIG RMK BLU BLU
13:20
V
6 °C 10 km+ - 360° 360° 18 kt METAR EGQS 061320Z 36018KT 9999 FEW022 SCT055 06/00 Q1028 NOSIG RMK BLU BLU
12:50
V
6 °C 10 km+ - 360° 360° 17 kt METAR EGQS 061250Z 36017KT 9999 FEW022 SCT055 06/01 Q1029 NOSIG RMK BLU BLU
12:20
V
6 °C 10 km+ 5,500 ft 350° 350° 18 kt METAR EGQS 061220Z 35018KT 9999 FEW025 BKN055 06/01 Q1029 TEMPO 7000 -SHRA SCT022 RMK BLU TEMPO WHT
11:50
V
6 °C 10 km+ - 360° 360° 16 kt METAR EGQS 061150Z 36016KT 9999 FEW018 SCT025 06/01 Q1029 TEMPO 7000 -SHRA SCT022 RMK BLU TEMPO WHT
11:20
V
6 °C 10 km+ - 350° 350° 17 kt METAR EGQS 061120Z 35017KT 9999 FEW018 SCT056 06/01 Q1029 TEMPO 7000 -SHRA SCT022 RMK BLU TEMPO WHT
10:50
V
6 °C 10 km+ 5,600 ft 350° 350° 18 kt METAR EGQS 061050Z 35018KT 9999 FEW018 BKN056 06/02 Q1029 TEMPO 7000 -SHRA SCT022 RMK BLU TEMPO WHT
10:20
V
6 °C 10 km+ 5,800 ft 360° 360° 18 kt METAR EGQS 061020Z 36018KT 9999 FEW019 SCT028 BKN058 06/02 Q1029 TEMPO 7000 -SHRA SCT022 RMK BLU TEMPO WHT
09:50
V
6 °C 10 km+ 5,800 ft 350° 350° 17 kt METAR EGQS 060950Z 35017KT 9999 FEW022 SCT030 BKN058 06/01 Q1029 TEMPO 7000 SHRA SCT024 RMK BLU TEMPO WHT
09:20
V
6 °C 10 km+ 5,800 ft 010° 010° 17 kt METAR EGQS 060920Z 01017KT 9999 FEW022 SCT028 BKN058 06/01 Q1029 TEMPO 7000 SHRA SCT024 RMK BLU TEMPO WHT
08:50
V
6 °C 10 km+ 6,000 ft 010° 010° 17 kt METAR EGQS 060850Z 01017KT 9999 FEW022 BKN060 06/01 Q1029 TEMPO 7000 -SHRA SCT022 RMK BLU TEMPO BLU
08:20
V
6 °C 10 km+ 6,000 ft 360° 360° 19 kt METAR EGQS 060820Z 36019KT 9999 FEW035 BKN060 06/00 Q1029 TEMPO 7000 -SHRA SCT022 RMK BLU TEMPO WHT
07:50
V
6 °C 10 km+ 5,500 ft 360° 360° 19 kt METAR EGQS 060750Z 36019KT 9999 FEW025 BKN055 06/M00 Q1029 TEMPO 7000 -SHRA SCT022 RMK BLU TEMPO WHT
07:20
V
6 °C 10 km+ 5,600 ft 010° 010° 21 kt METAR EGQS 060720Z AUTO 01021KT 9999 OVC056/// 06/M00 Q1029
06:50
V
6 °C 10 km+ 6,000 ft 360° 360° 22 kt METAR EGQS 060650Z 36022KT 9999 FEW024 OVC060 06/02 Q1029 RMK BLU
05:50
V
6 °C 10 km+ 6,000 ft 360° 360° 18 kt METAR EGQS 060550Z 36018KT 9999 FEW020 OVC060 06/02 Q1029 RMK BLU
04:50
V
6 °C 10 km+ 6,000 ft 350° 350° 15 kt METAR EGQS 060450Z 35015KT 9999 FEW023 OVC060 06/02 Q1029 RMK BLU
03:50
V
6 °C 10 km+ - 350° 350° 16 kt METAR EGQS 060350Z 35016KT CAVOK 06/02 Q1029 RMK BLU
02:50
V
6 °C 10 km+ - 350° 350° 16 kt METAR EGQS 060250Z 35016KT CAVOK 06/02 Q1029 RMK BLU
01:50
V
6 °C 10 km+ 5,100 ft 350° 350° 16 kt METAR EGQS 060150Z 35016KT 9999 FEW029 BKN051 06/02 Q1030 RMK BLU
00:50
V
6 °C 10 km+ 5,000 ft 360° 360° 13 kt METAR EGQS 060050Z 36013KT 9999 FEW022 BKN050 06/02 Q1030 RMK BLU

December 5, 2022

Time Code Weather Temp. Visibility Ceiling Wind METAR/SPECI
22:50
V
5 °C 10 km+ 4,200 ft 320° 320° 9 kt METAR EGQS 052250Z 32009KT 9999 FEW009 SCT018 BKN042 05/04 Q1031 RERA RMK WHT
21:50
M
6 °C 10 km+ 1,400 ft 300° 300° 10 kt METAR EGQS 052150Z 30010KT 9999 -SHRA FEW009 BKN014 OVC015 06/04 Q1031 RMK GRN
20:50
V
6 °C 10 km+ 3,000 ft 330° 330° 8 kt METAR EGQS 052050Z 33008KT 9999 FEW025 BKN030 06/03 Q1031 RMK BLU
19:50
V
5 °C 10 km+ - 340° 340° 9 kt METAR EGQS 051950Z 34009KT 9999 FEW019 SCT042 05/03 Q1032 RMK BLU
18:50
V
6 °C 10 km+ 4,200 ft 010° 010° 12 kt METAR EGQS 051850Z 01012KT 9999 FEW026 BKN042 06/02 Q1032 RMK BLU
18:20
V
7 °C 10 km+ 3,500 ft 010° 010° 6 kt METAR EGQS 051820Z 01006KT 9999 FEW022 BKN035 07/02 Q1032 RMK BLU
17:50
V
6 °C 10 km+ 3,800 ft 340° 340° 8 kt METAR EGQS 051750Z 34008KT 9999 FEW022 BKN038 06/03 Q1032 TEMPO SCT024 RMK BLU TEMPO WHT
17:20
V
6 °C 10 km+ 3,200 ft 310° 310° 8 kt METAR EGQS 051720Z 31008KT 9999 FEW021 BKN032 06/04 Q1032 TEMPO SCT024 RMK BLU TEMPO WHT
16:50
V
6 °C 10 km+ 3,700 ft 330° 330° 7 kt METAR EGQS 051650Z 33007KT 9999 FEW012 SCT020 BKN037 06/03 Q1032 TEMPO FEW020 RMK WHT TEMPO BLU
16:20
V
6 °C 10 km+ 3,500 ft 300° 300° 9 kt METAR EGQS 051620Z 30009KT 9999 -SHRA FEW012 SCT020 BKN035 06/04 Q1032 TEMPO FEW020 RMK WHT TEMPO BLU
15:50
V
6 °C 10 km+ 3,500 ft 270° 270° 6 kt METAR EGQS 051550Z 27006KT 9999 -SHRA FEW012 SCT020 BKN035 06/03 Q1032 TEMPO FEW020 RMK WHT TEMPO BLU
15:20
V
6 °C 10 km+ 3,800 ft 260° 260° 6 kt METAR EGQS 051520Z 26006KT 9999 FEW023 BKN038 06/03 Q1032 TEMPO SCT023 RMK BLU TEMPO WHT
14:50
V
5 °C 10 km+ 3,000 ft 240° 240° 5 kt METAR EGQS 051450Z 24005KT 9999 FEW011 BKN030 05/04 Q1032 TEMPO SCT020 RMK BLU TEMPO WHT
14:20
V
6 °C 10 km+ 3,200 ft 310° 310° 5 kt METAR EGQS 051420Z 31005KT 9999 FEW011 SCT020 BKN032 06/03 Q1032 TEMPO FEW020 RMK WHT TEMPO BLU
13:50
M
6 °C 10 km+ 1,900 ft 290° 290° 9 kt METAR EGQS 051350Z 29009KT 9999 -SHRA FEW011 BKN019 06/04 Q1033 TEMPO FEW019 RMK WHT TEMPO BLU
13:39
M
6 °C 10 km+ 2,100 ft 290° 290° 9 kt METAR EGQS 051339Z 29009KT 9999 -SHRA FEW011 BKN021 06/03 Q1033 TEMPO FEW021 RMK WHT TEMPO BLU
13:20
V
6 °C 10 km+ 3,700 ft 270° 270° 7 kt METAR EGQS 051320Z 27007KT 9999 FEW013 SCT025 BKN037 06/05 Q1033 TEMPO SCT024 RMK BLU TEMPO WHT
12:50
V
3 °C 10 km+ 3,700 ft 230° 230° 6 kt METAR EGQS 051250Z 23006KT 9999 FEW013 SCT025 BKN037 03/02 Q1033 TEMPO SCT024 RMK BLU TEMPO WHT
12:37
V
3 °C 10 km+ - 220° 220° 7 kt METAR EGQS 051237Z 22007KT 9999 FEW017 SCT026 03/02 Q1033 TEMPO SCT021 RMK BLU TEMPO WHT
12:28
V
3 °C 10 km+ 4,000 ft 220° 220° 8 kt METAR EGQS 051228Z 22008KT 9999 FEW013 SCT021 BKN040 03/03 Q1033 TEMPO FEW021 RMK WHT TEMPO BLU
12:20
M
3 °C 10 km+ 2,500 ft 230° 230° 7 kt METAR EGQS 051220Z 23007KT 9999 FEW013 BKN025 03/03 Q1033 TEMPO SCT024 RMK BLU TEMPO WHT
11:50
V
3 °C 10 km+ 3,200 ft 240° 240° 6 kt METAR EGQS 051150Z 24006KT 9999 FEW022 BKN032 03/02 Q1033 NOSIG RMK BLU BLU
11:20
V
2 °C 10 km+ 3,500 ft 230° 230° 7 kt METAR EGQS 051120Z 23007KT 9999 FEW025 BKN035 02/02 Q1034 NOSIG RMK BLU BLU
10:50
V
2 °C 10 km+ 3,800 ft 230° 230° 7 kt METAR EGQS 051050Z 23007KT 9999 FEW025 BKN038 02/01 Q1034 NOSIG RMK BLU BLU
10:20
V
2 °C 10 km+ - 240° 240° 7 kt METAR EGQS 051020Z 24007KT 9999 FEW025 SCT045 02/01 Q1034 NOSIG RMK BLU BLU
09:50
V
1 °C 10 km+ - 240° 240° 7 kt METAR EGQS 050950Z 24007KT 9999 FEW022 SCT045 01/00 Q1034 NOSIG RMK BLU BLU

We and third parties follow your internet behavior on our website with cookies. If you continue, we assume you agree with our cookie policy.